createdAt,value
2023-04-02T16:05:01.587Z,64.46
2023-04-02T16:10:01.553Z,65.05
2023-04-02T16:15:01.489Z,64.73
2023-04-02T16:20:02.421Z,64.84
2023-04-02T16:25:01.358Z,64.88
2023-04-02T16:30:01.310Z,64.37
2023-04-02T16:35:15.221Z,64.10
2023-04-02T16:40:02.232Z,63.94
2023-04-02T16:45:01.034Z,63.74
2023-04-02T16:50:01.902Z,63.55
2023-04-02T16:55:00.996Z,63.47
2023-04-02T17:00:00.858Z,63.46
2023-04-02T17:05:00.828Z,63.53
2023-04-02T17:10:00.763Z,63.34
2023-04-02T17:15:00.708Z,63.54
2023-04-02T17:20:00.661Z,63.16
2023-04-02T17:25:00.545Z,63.18
2023-04-02T17:30:00.665Z,62.88
2023-04-02T17:35:00.416Z,63.05
2023-04-02T17:40:00.396Z,62.96
2023-04-02T17:45:00.265Z,62.99
2023-04-02T17:50:00.228Z,63.04
2023-04-02T17:55:00.164Z,63.03
2023-04-02T18:00:00.202Z,62.94
2023-04-02T18:05:00.017Z,62.78
2023-04-02T18:09:59.973Z,62.48
2023-04-02T18:14:59.887Z,62.38
2023-04-02T18:19:59.853Z,62.44
2023-04-02T18:24:59.782Z,62.57
2023-04-02T18:29:59.708Z,62.67
2023-04-02T18:34:59.630Z,62.83
2023-04-02T18:39:59.557Z,62.96
2023-04-02T18:44:59.533Z,63.05
2023-04-02T18:49:59.442Z,63.10
2023-04-02T18:54:59.396Z,63.11
2023-04-02T18:59:59.345Z,63.17
2023-04-02T19:04:59.264Z,63.20
2023-04-02T19:09:59.195Z,63.29
2023-04-02T19:14:59.095Z,63.05
2023-04-02T19:19:59.038Z,63.03
2023-04-02T19:24:59.025Z,62.99
2023-04-02T19:29:58.913Z,62.87
2023-04-02T19:34:58.895Z,62.81
2023-04-02T19:39:58.808Z,62.71
2023-04-02T19:44:58.712Z,62.76
2023-04-02T19:49:58.698Z,62.79
2023-04-02T19:54:58.580Z,62.83
2023-04-02T19:59:58.542Z,62.77
2023-04-02T20:04:58.439Z,62.79
2023-04-02T20:09:59.376Z,62.45
2023-04-02T20:14:58.335Z,62.45
2023-04-02T20:19:58.259Z,62.53
2023-04-02T20:24:58.174Z,62.48
2023-04-02T20:29:58.122Z,62.16
2023-04-02T20:34:58.034Z,62.04
2023-04-02T20:39:57.989Z,62.07
2023-04-02T20:44:57.939Z,62.04
2023-04-02T20:49:57.922Z,61.77
2023-04-02T20:54:57.800Z,61.20
2023-04-02T20:59:57.730Z,61.46
2023-04-02T21:04:57.690Z,61.58
2023-04-02T21:09:57.751Z,61.67
2023-04-02T21:14:57.869Z,61.82
2023-04-02T21:19:57.476Z,61.77
2023-04-02T21:24:57.389Z,61.82
2023-04-02T21:29:57.356Z,61.82
2023-04-02T21:34:57.394Z,61.89
2023-04-02T21:39:57.218Z,61.92
2023-04-02T21:44:57.120Z,62.00
2023-04-02T21:49:57.082Z,62.11
2023-04-02T21:54:56.980Z,62.16
2023-04-02T21:59:57.913Z,62.23
2023-04-02T22:04:56.864Z,62.35
2023-04-02T22:09:56.803Z,62.50
2023-04-02T22:14:56.759Z,62.62
2023-04-02T22:19:56.712Z,62.77
2023-04-02T22:24:56.609Z,62.90
2023-04-02T22:29:56.528Z,62.96
2023-04-02T22:34:56.457Z,63.05
2023-04-02T22:39:56.379Z,63.16
2023-04-02T22:44:56.484Z,63.23
2023-04-02T22:49:56.276Z,63.25
2023-04-02T22:54:56.202Z,63.27
2023-04-02T22:59:56.144Z,63.30
2023-04-02T23:04:56.082Z,63.31
2023-04-02T23:09:56.905Z,63.41
2023-04-02T23:14:55.968Z,63.46
2023-04-02T23:19:55.887Z,63.49
2023-04-02T23:24:56.591Z,63.48
2023-04-02T23:29:55.764Z,63.51
2023-04-02T23:34:55.681Z,63.58
2023-04-02T23:39:55.607Z,63.58
2023-04-02T23:44:55.563Z,63.58
2023-04-02T23:49:55.492Z,63.57
2023-04-02T23:54:55.382Z,63.57
2023-04-02T23:59:55.381Z,63.59
